Time;durP1;ratioP1;P1;durP2;ratioP2;P2;SDS_P1;SDS_P2;PMS_P1;PMS_P2;Temp;Humidity;BMP_temperature;BMP_pressure;BME280_temperature;BME280_humidity;BME280_pressure;Samples;Min_cycle;Max_cycle;Signal;HPM_P1;HPM_P2
2021/08/30 00:01:50;;;;;;;9.37;6.70;;;;;;;12.30;100.00;96043.84;5062025;28;20020;-79
2021/08/30 00:04:16;;;;;;;8.27;6.17;;;;;;;12.30;100.00;96040.38;5079886;28;20047;-80
2021/08/30 00:06:42;;;;;;;8.53;6.70;;;;;;;12.30;100.00;96035.94;5057304;28;20021;-79
2021/08/30 00:09:12;;;;;;;8.97;6.70;;;;;;;12.27;100.00;96031.84;5062364;28;20032;-80
2021/08/30 00:11:38;;;;;;;8.97;6.60;;;;;;;12.33;100.00;96032.94;5084593;28;20025;-80
2021/08/30 00:14:04;;;;;;;9.17;5.77;;;;;;;12.30;100.00;96035.09;5073839;28;20063;-79
2021/08/30 00:16:31;;;;;;;8.70;5.70;;;;;;;12.27;100.00;96028.34;5071700;28;20095;-79
2021/08/30 00:18:57;;;;;;;9.00;6.27;;;;;;;12.28;100.00;96027.38;5079771;28;20031;-79
2021/08/30 00:21:23;;;;;;;8.60;6.17;;;;;;;12.27;100.00;96025.72;5084609;28;20032;-79
2021/08/30 00:23:49;;;;;;;7.47;5.43;;;;;;;12.33;100.00;96027.66;5066757;28;20024;-80
2021/08/30 00:26:15;;;;;;;11.23;6.43;;;;;;;12.26;100.00;96024.91;5076462;28;20359;-79
2021/08/30 00:28:41;;;;;;;7.60;5.13;;;;;;;12.27;100.00;96023.09;5082261;28;20036;-79
2021/08/30 00:31:07;;;;;;;7.67;5.47;;;;;;;12.37;100.00;96021.03;5080300;28;20056;-79
2021/08/30 00:33:32;;;;;;;8.47;5.37;;;;;;;12.35;100.00;96023.06;5060026;28;20111;-79
2021/08/30 00:35:58;;;;;;;8.13;5.77;;;;;;;12.36;100.00;96022.03;5087823;28;20491;-79
2021/08/30 00:38:25;;;;;;;7.30;5.53;;;;;;;12.40;100.00;96025.16;5077649;28;20043;-79
2021/08/30 00:40:51;;;;;;;10.10;6.10;;;;;;;12.37;100.00;96020.22;5072229;28;20016;-79
2021/08/30 00:43:16;;;;;;;7.90;6.23;;;;;;;12.38;100.00;96021.88;5073169;28;20107;-80
2021/08/30 00:45:42;;;;;;;8.30;5.90;;;;;;;12.40;100.00;96012.78;5080215;28;20026;-79
2021/08/30 00:48:08;;;;;;;8.53;5.77;;;;;;;12.39;100.00;96019.06;5083800;28;20077;-79
2021/08/30 00:50:34;;;;;;;9.27;6.07;;;;;;;12.36;100.00;96015.97;5080187;28;20028;-79
2021/08/30 00:53:00;;;;;;;8.63;6.33;;;;;;;12.39;100.00;96013.78;5080790;28;20044;-79
2021/08/30 00:55:26;;;;;;;8.43;5.87;;;;;;;12.36;100.00;96003.59;5084031;28;20028;-79
2021/08/30 00:57:52;;;;;;;8.57;5.90;;;;;;;12.34;100.00;96005.59;5080996;28;20091;-79
2021/08/30 01:00:18;;;;;;;8.00;5.90;;;;;;;12.34;100.00;96002.13;5074166;28;20028;-79
2021/08/30 01:02:44;;;;;;;7.53;5.47;;;;;;;12.25;100.00;96006.63;5057227;28;20378;-79
2021/08/30 01:05:12;;;;;;;7.30;5.30;;;;;;;12.30;100.00;96009.56;5079836;28;20081;-79
2021/08/30 01:07:43;;;;;;;7.47;5.27;;;;;;;12.27;100.00;96000.19;5064470;28;20044;-79
2021/08/30 01:10:27;;;;;;;10.40;6.17;;;;;;;12.30;100.00;95995.56;5072023;28;20111;-79
2021/08/30 01:12:59;;;;;;;10.20;5.40;;;;;;;12.35;100.00;96001.94;5072821;28;20033;-79
2021/08/30 01:15:45;;;;;;;8.80;5.90;;;;;;;12.36;100.00;95992.22;5077930;28;20042;-80
2021/08/30 01:18:19;;;;;;;8.30;6.53;;;;;;;12.32;100.00;95991.75;5093605;28;20036;-80
2021/08/30 01:21:24;;;;;;;10.10;6.87;;;;;;;12.32;100.00;95990.94;5086926;28;20566;-79
2021/08/30 01:23:58;;;;;;;10.13;6.67;;;;;;;12.31;100.00;95992.75;5082065;28;20040;-79
2021/08/30 01:26:43;;;;;;;8.87;6.90;;;;;;;12.34;100.00;95989.78;5073160;28;20405;-79
2021/08/30 01:29:34;;;;;;;10.10;7.90;;;;;;;12.31;100.00;95989.28;5075357;28;20028;-78
2021/08/30 01:32:22;;;;;;;9.53;6.80;;;;;;;12.29;100.00;95989.47;5054361;28;20060;-79
2021/08/30 01:34:48;;;;;;;10.03;7.00;;;;;;;12.33;100.00;95984.66;5061157;28;20116;-79
2021/08/30 01:37:14;;;;;;;9.43;6.80;;;;;;;12.36;100.00;95985.13;5064787;28;20631;-79
2021/08/30 01:39:41;;;;;;;9.50;6.60;;;;;;;12.32;100.00;95975.94;5084316;28;20067;-79
2021/08/30 01:42:07;;;;;;;9.80;7.27;;;;;;;12.36;100.00;95977.22;5076146;28;20028;-79
2021/08/30 01:44:33;;;;;;;9.70;7.03;;;;;;;12.36;100.00;95976.41;5057714;28;20043;-80
2021/08/30 01:47:00;;;;;;;10.30;7.27;;;;;;;12.30;100.00;95967.38;5070101;28;20028;-79
2021/08/30 01:49:28;;;;;;;10.77;7.63;;;;;;;12.31;100.00;95976.94;5079917;28;20044;-79
2021/08/30 01:51:55;;;;;;;11.03;7.90;;;;;;;12.31;100.00;95978.72;5071598;28;20017;-79
2021/08/30 01:54:23;;;;;;;10.50;8.00;;;;;;;12.35;100.00;95972.94;5064281;28;20044;-79
2021/08/30 01:56:51;;;;;;;10.87;7.87;;;;;;;12.36;100.00;95977.22;5069774;28;20067;-79
2021/08/30 02:02:08;;;;;;;10.47;7.63;;;;;;;12.37;100.00;95965.66;5075007;28;20032;-79
2021/08/30 02:04:35;;;;;;;12.20;8.70;;;;;;;12.37;100.00;95973.56;5078884;28;20052;-78
2021/08/30 02:07:02;;;;;;;11.07;8.60;;;;;;;12.40;100.00;95967.13;5078647;28;20414;-79
2021/08/30 02:09:28;;;;;;;10.70;8.37;;;;;;;12.42;100.00;95968.59;5058198;28;20059;-79
2021/08/30 02:11:54;;;;;;;12.43;8.90;;;;;;;12.40;100.00;95962.66;5065428;28;20028;-79
2021/08/30 02:14:20;;;;;;;11.83;8.67;;;;;;;12.38;100.00;95959.41;5078211;28;20029;-79
2021/08/30 02:16:50;;;;;;;11.40;8.70;;;;;;;12.34;100.00;95958.13;5064760;28;20030;-80
2021/08/30 02:19:27;;;;;;;12.67;9.37;;;;;;;12.40;100.00;95956.59;5078117;28;20118;-79
2021/08/30 02:22:03;;;;;;;12.83;9.10;;;;;;;12.35;100.00;95949.22;5074339;28;20032;-79
2021/08/30 02:24:35;;;;;;;12.80;9.07;;;;;;;12.39;100.00;95955.78;5060657;28;20032;-79
2021/08/30 02:27:03;;;;;;;12.43;9.27;;;;;;;12.40;100.00;95948.66;5081551;28;20028;-79
2021/08/30 02:29:52;;;;;;;11.97;9.27;;;;;;;12.39;100.00;95952.31;5053618;28;20024;-79
2021/08/30 02:32:19;;;;;;;14.13;9.97;;;;;;;12.39;100.00;95945.22;5054048;28;20063;-79
2021/08/30 02:34:56;;;;;;;13.57;10.47;;;;;;;12.30;100.00;95940.19;5068910;28;20027;-79
2021/08/30 02:37:30;;;;;;;14.97;10.43;;;;;;;12.30;100.00;95946.28;5065833;28;20033;-79
2021/08/30 02:39:58;;;;;;;15.07;10.05;;;;;;;12.35;100.00;95943.13;5074862;28;20407;-80
2021/08/30 02:42:25;;;;;;;14.13;9.90;;;;;;;12.36;100.00;95945.56;5075391;28;20037;-80
2021/08/30 02:44:51;;;;;;;16.30;11.27;;;;;;;12.30;100.00;95933.09;5066378;28;20065;-79
2021/08/30 02:47:19;;;;;;;13.80;10.33;;;;;;;12.31;100.00;95937.38;5059010;28;20036;-80
2021/08/30 02:49:47;;;;;;;14.30;9.80;;;;;;;12.32;100.00;95939.03;5058779;28;20036;-80
2021/08/30 02:52:14;;;;;;;12.90;9.43;;;;;;;12.36;100.00;95945.56;5064347;28;20149;-80
2021/08/30 02:54:43;;;;;;;13.73;9.57;;;;;;;12.34;100.00;95934.41;5073511;28;20051;-80
2021/08/30 02:57:09;;;;;;;12.93;9.47;;;;;;;12.31;100.00;95937.38;5080102;28;20032;-79
2021/08/30 02:59:35;;;;;;;12.10;8.57;;;;;;;12.36;100.00;95934.22;5057819;28;20028;-80
2021/08/30 03:02:03;;;;;;;11.73;7.50;;;;;;;12.34;100.00;95933.56;5080654;28;20025;-80
2021/08/30 03:04:32;;;;;;;11.57;8.17;;;;;;;12.35;100.00;95933.41;5055821;28;20063;-80
2021/08/30 03:06:59;;;;;;;12.27;7.80;;;;;;;12.33;100.00;95934.56;5067768;28;20107;-80
2021/08/30 03:09:26;;;;;;;10.73;7.40;;;;;;;12.33;100.00;95935.38;5074545;28;20032;-79
2021/08/30 03:11:53;;;;;;;9.03;5.57;;;;;;;12.37;100.00;95927.94;5077189;28;20028;-80
2021/08/30 03:14:25;;;;;;;7.93;5.27;;;;;;;12.31;100.00;95932.13;5059021;28;20040;-80
2021/08/30 03:16:55;;;;;;;7.67;4.47;;;;;;;12.37;100.00;95931.38;5076592;28;20116;-80
2021/08/30 03:19:23;;;;;;;5.97;3.67;;;;;;;12.33;100.00;95930.09;5083515;28;20044;-80
2021/08/30 03:21:50;;;;;;;5.27;3.40;;;;;;;12.37;100.00;95920.84;5072059;28;20037;-80
2021/08/30 03:24:19;;;;;;;4.87;3.20;;;;;;;12.33;100.00;95913.47;5068243;28;20038;-80
2021/08/30 03:26:47;;;;;;;4.57;2.77;;;;;;;12.36;100.00;95921.84;5068601;28;20035;-80
2021/08/30 03:29:14;;;;;;;5.07;3.20;;;;;;;12.30;100.00;95916.47;5086452;28;20515;-81
2021/08/30 03:31:41;;;;;;;4.77;2.83;;;;;;;12.39;100.00;95910.94;5062978;28;20482;-80
2021/08/30 03:34:07;;;;;;;4.63;2.93;;;;;;;12.32;100.00;95922.38;5082816;28;20024;-80
2021/08/30 03:36:33;;;;;;;3.60;2.33;;;;;;;12.33;100.00;95911.66;5061457;28;20451;-80
2021/08/30 03:39:00;;;;;;;5.33;2.83;;;;;;;12.29;100.00;95912.19;5079095;28;20054;-80
2021/08/30 03:41:27;;;;;;;4.13;2.53;;;;;;;12.35;100.00;95916.75;5083466;28;20119;-80
2021/08/30 03:43:55;;;;;;;5.47;2.50;;;;;;;12.31;100.00;95923.34;5072966;28;20709;-80
2021/08/30 03:46:21;;;;;;;6.23;2.60;;;;;;;12.38;100.00;95913.78;5075581;28;20092;-80
2021/08/30 03:48:48;;;;;;;3.87;2.30;;;;;;;12.34;100.00;95917.72;5068948;28;20090;-80
2021/08/30 03:51:15;;;;;;;4.47;2.80;;;;;;;12.33;100.00;95919.56;5073911;28;20039;-80
2021/08/30 03:53:42;;;;;;;4.70;2.77;;;;;;;12.31;100.00;95921.56;5084700;28;20032;-80
2021/08/30 03:56:09;;;;;;;5.23;3.27;;;;;;;12.36;100.00;95921.03;5066455;28;20059;-80
2021/08/30 03:58:37;;;;;;;5.57;3.47;;;;;;;12.36;100.00;95919.19;5083674;28;20092;-80
2021/08/30 04:01:05;;;;;;;6.97;4.13;;;;;;;12.36;100.00;95921.03;5074740;28;20718;-80
2021/08/30 04:03:37;;;;;;;5.43;3.53;;;;;;;12.39;100.00;95918.84;5061733;28;20033;-80
2021/08/30 04:06:04;;;;;;;5.97;3.93;;;;;;;12.42;100.00;95918.50;5055762;28;20021;-80
2021/08/30 04:08:30;;;;;;;5.77;3.40;;;;;;;12.38;100.00;95919.84;5075010;28;20056;-80
2021/08/30 04:10:59;;;;;;;5.67;3.70;;;;;;;12.41;100.00;95918.69;5064608;28;20028;-80
2021/08/30 04:13:27;;;;;;;7.70;4.90;;;;;;;12.37;100.00;95935.84;5072878;28;20145;-80
2021/08/30 04:15:54;;;;;;;6.60;3.83;;;;;;;12.36;100.00;95928.94;5056878;28;20116;-79
2021/08/30 04:18:20;;;;;;;6.77;4.53;;;;;;;12.39;100.00;95932.03;5062724;28;20465;-80
2021/08/30 04:20:45;;;;;;;7.17;4.03;;;;;;;12.42;100.00;95929.03;5074210;28;20475;-80
2021/08/30 04:23:11;;;;;;;6.53;4.10;;;;;;;12.43;100.00;95929.84;5055246;28;20020;-80
2021/08/30 04:25:37;;;;;;;7.53;4.30;;;;;;;12.40;100.00;95928.38;5077142;28;20033;-79
2021/08/30 04:28:03;;;;;;;6.33;4.00;;;;;;;12.43;100.00;95928.03;5071576;28;20062;-79
2021/08/30 04:30:29;;;;;;;7.33;4.20;;;;;;;12.46;100.00;95937.41;5053241;28;20448;-80
2021/08/30 04:32:55;;;;;;;7.60;4.37;;;;;;;12.52;100.00;95934.06;5053965;28;20116;-80
2021/08/30 04:35:22;;;;;;;5.77;3.70;;;;;;;12.46;100.00;95927.69;5075774;28;20033;-79
2021/08/30 04:37:48;;;;;;;6.70;4.67;;;;;;;12.46;100.00;95935.59;5064143;28;20042;-80
2021/08/30 04:40:14;;;;;;;7.73;5.53;;;;;;;12.42;100.00;95931.69;5065953;28;20063;-80
2021/08/30 04:42:40;;;;;;;7.47;5.10;;;;;;;12.46;100.00;95934.78;5074504;28;20048;-80
2021/08/30 04:45:08;;;;;;;6.97;4.23;;;;;;;12.48;100.00;95949.44;5071085;28;20115;-80
2021/08/30 04:47:34;;;;;;;6.77;4.37;;;;;;;12.54;100.00;95941.78;5072647;28;20037;-80
2021/08/30 04:50:02;;;;;;;6.23;4.00;;;;;;;12.56;100.00;95948.53;5076478;28;20129;-80
2021/08/30 04:52:27;;;;;;;6.30;4.13;;;;;;;12.60;100.00;95965.63;5044789;28;20068;-80
2021/08/30 04:54:53;;;;;;;6.73;3.83;;;;;;;12.60;100.00;95951.63;5067902;28;20648;-80
2021/08/30 04:57:18;;;;;;;6.23;3.77;;;;;;;12.62;100.00;95950.47;5073853;28;20035;-80
2021/08/30 04:59:44;;;;;;;5.20;3.17;;;;;;;12.59;100.00;95947.38;5053079;28;20086;-80
2021/08/30 05:02:12;;;;;;;4.97;3.23;;;;;;;12.65;100.00;95955.38;5074914;28;20024;-80
2021/08/30 05:04:38;;;;;;;6.10;3.13;;;;;;;12.70;100.00;95954.84;5060814;28;20536;-79
2021/08/30 05:07:04;;;;;;;5.53;3.10;;;;;;;12.66;100.00;95953.56;5068387;28;20036;-81
2021/08/30 05:09:31;;;;;;;4.83;2.93;;;;;;;12.63;100.00;95951.28;5054155;28;20132;-80
2021/08/30 05:11:57;;;;;;;6.53;2.93;;;;;;;12.59;100.00;95955.28;5064268;28;20024;-80
2021/08/30 05:14:23;;;;;;;7.57;4.33;;;;;;;12.60;100.00;95952.44;5055219;28;20056;-81
2021/08/30 05:16:48;;;;;;;5.60;2.97;;;;;;;12.65;100.00;95958.03;5055853;28;20024;-80
2021/08/30 05:19:14;;;;;;;4.35;2.60;;;;;;;12.72;100.00;95958.13;5058452;28;20504;-80
2021/08/30 05:21:40;;;;;;;5.30;2.77;;;;;;;12.78;100.00;95954.78;5082499;28;20401;-79
2021/08/30 05:24:07;;;;;;;5.10;2.63;;;;;;;12.67;100.00;95957.84;5066042;28;20067;-80
2021/08/30 05:26:34;;;;;;;5.60;3.30;;;;;;;12.71;100.00;95959.13;5084123;28;20051;-80
2021/08/30 05:29:00;;;;;;;7.93;3.23;;;;;;;12.68;100.00;95960.31;5054631;28;20036;-80
2021/08/30 05:31:26;;;;;;;5.03;3.07;;;;;;;12.63;100.00;95964.47;5063345;28;20021;-80
2021/08/30 05:33:51;;;;;;;6.10;3.57;;;;;;;12.64;100.00;95971.38;5071183;28;20025;-80
2021/08/30 05:36:18;;;;;;;5.90;3.50;;;;;;;12.60;100.00;95956.91;5056034;28;20115;-80
2021/08/30 05:38:44;;;;;;;7.53;5.20;;;;;;;12.60;100.00;95955.09;5054314;28;20028;-79
2021/08/30 05:41:09;;;;;;;5.97;3.57;;;;;;;12.71;100.00;95969.69;5061933;28;21017;-80
2021/08/30 05:43:35;;;;;;;7.87;4.40;;;;;;;12.63;100.00;95961.84;5053723;28;20757;-80
2021/08/30 05:46:01;;;;;;;5.10;3.50;;;;;;;12.65;100.00;95957.22;5068378;28;20024;-80
2021/08/30 05:48:27;;;;;;;7.07;4.30;;;;;;;12.63;100.00;95969.75;5057054;28;20064;-80
2021/08/30 05:50:53;;;;;;;7.97;4.03;;;;;;;12.63;100.00;95964.47;5060126;28;20028;-81
2021/08/30 05:53:19;;;;;;;7.40;4.43;;;;;;;12.61;100.00;95969.94;5065626;28;20071;-81
2021/08/30 05:55:45;;;;;;;7.23;4.00;;;;;;;12.70;100.00;95968.03;5075917;28;20274;-80
2021/08/30 05:58:11;;;;;;;6.13;4.10;;;;;;;12.72;100.00;95960.78;5050247;28;20337;-81
2021/08/30 06:00:36;;;;;;;6.03;4.03;;;;;;;12.74;100.00;95964.03;5069748;28;20024;-81
2021/08/30 06:03:02;;;;;;;8.00;4.33;;;;;;;12.76;100.00;95974.44;5091576;28;20498;-80
2021/08/30 06:05:28;;;;;;;11.73;8.00;;;;;;;12.73;100.00;95972.94;5050762;28;20028;-79
2021/08/30 06:07:54;;;;;;;6.47;4.10;;;;;;;12.68;100.00;95962.94;5076792;28;20092;-80
2021/08/30 06:10:19;;;;;;;9.67;7.13;;;;;;;12.71;100.00;95970.50;5053887;28;20090;-79
2021/08/30 06:12:45;;;;;;;6.27;3.97;;;;;;;12.77;100.00;95976.06;5059475;28;20024;-80
2021/08/30 06:15:11;;;;;;;6.88;3.92;;;;;;;12.73;100.00;95967.69;5054884;28;20032;-81
2021/08/30 06:17:37;;;;;;;6.53;3.93;;;;;;;12.76;100.00;95974.44;5076883;28;20448;-80
2021/08/30 06:20:03;;;;;;;8.53;4.03;;;;;;;12.66;100.00;95970.22;5068460;28;20481;-79
2021/08/30 06:22:29;;;;;;;6.10;3.93;;;;;;;12.72;100.00;95966.03;5077028;28;20031;-79
2021/08/30 06:24:55;;;;;;;5.93;3.77;;;;;;;12.72;100.00;95976.59;5071271;28;20572;-80
2021/08/30 06:27:20;;;;;;;7.20;4.33;;;;;;;12.70;100.00;95974.13;5057433;28;20047;-80
2021/08/30 06:29:48;;;;;;;6.30;4.33;;;;;;;12.69;100.00;95972.50;5081776;28;20021;-81
2021/08/30 06:32:14;;;;;;;6.87;3.83;;;;;;;12.79;100.00;95968.78;5068953;28;20047;-81
2021/08/30 06:34:40;;;;;;;7.27;4.87;;;;;;;12.81;100.00;95972.91;5081103;28;20037;-81
2021/08/30 06:37:05;;;;;;;6.93;4.13;;;;;;;12.96;100.00;95968.44;5054816;28;20476;-80
2021/08/30 06:39:31;;;;;;;7.32;4.82;;;;;;;13.04;100.00;95980.72;5071024;28;20517;-80
2021/08/30 06:41:57;;;;;;;7.13;5.00;;;;;;;13.03;100.00;95978.28;5069998;28;20161;-79
2021/08/30 06:44:23;;;;;;;7.00;4.90;;;;;;;13.04;100.00;95983.38;5079762;28;20021;-80
2021/08/30 06:46:49;;;;;;;7.47;4.80;;;;;;;13.12;100.00;95977.22;5074136;28;20040;-80
2021/08/30 06:49:14;;;;;;;7.53;4.80;;;;;;;13.14;100.00;95976.00;5065346;28;20436;-80
2021/08/30 06:51:40;;;;;;;9.03;5.47;;;;;;;13.13;100.00;95978.84;5060624;28;20606;-80
2021/08/30 06:54:06;;;;;;;8.38;5.25;;;;;;;13.27;100.00;95987.78;5063070;28;20043;-79
2021/08/30 06:56:31;;;;;;;8.30;5.25;;;;;;;13.26;100.00;95979.06;5075576;28;20067;-81
2021/08/30 06:58:57;;;;;;;7.18;4.70;;;;;;;13.33;100.00;95979.97;5090853;28;20034;-81
2021/08/30 07:01:23;;;;;;;9.90;6.70;;;;;;;13.32;100.00;95977.53;5055160;28;20040;-80
2021/08/30 07:03:48;;;;;;;11.77;6.60;;;;;;;13.33;100.00;95979.16;5053583;28;20036;-80
2021/08/30 07:06:15;;;;;;;8.25;5.03;;;;;;;13.30;100.00;95980.31;5073607;28;20044;-81
2021/08/30 07:08:40;;;;;;;9.20;5.93;;;;;;;13.34;100.00;95980.78;5061205;28;20387;-79
2021/08/30 07:11:06;;;;;;;9.45;5.32;;;;;;;13.30;100.00;95992.72;5070173;28;20078;-80
2021/08/30 07:13:32;;;;;;;10.43;6.15;;;;;;;13.30;100.00;95974.22;5056849;28;20128;-80
2021/08/30 07:15:58;;;;;;;7.70;5.43;;;;;;;13.33;100.00;95982.59;5071487;28;20490;-80
2021/08/30 07:18:24;;;;;;;8.07;5.90;;;;;;;13.34;100.00;95984.22;5069369;28;20051;-81
2021/08/30 07:20:50;;;;;;;9.15;6.10;;;;;;;13.17;100.00;95985.38;5065199;28;20532;-80
2021/08/30 07:23:17;;;;;;;8.30;5.55;;;;;;;13.22;100.00;95988.31;5068579;28;20032;-80
2021/08/30 07:25:43;;;;;;;10.40;7.93;;;;;;;13.26;100.00;95981.69;5074589;28;20066;-80
2021/08/30 07:28:09;;;;;;;12.43;9.52;;;;;;;13.19;100.00;95983.41;5074111;28;20036;-81
2021/08/30 07:30:34;;;;;;;7.55;5.68;;;;;;;13.19;100.00;95981.56;5075152;28;20040;-78
2021/08/30 07:33:00;;;;;;;9.38;5.75;;;;;;;13.21;100.00;95989.28;5079906;28;20035;-79
2021/08/30 07:35:27;;;;;;;7.75;5.65;;;;;;;13.33;100.00;95992.34;5057880;28;20060;-81
2021/08/30 07:37:54;;;;;;;9.52;5.63;;;;;;;13.52;100.00;95991.00;5064039;28;20039;-80
2021/08/30 07:40:20;;;;;;;8.70;5.55;;;;;;;13.70;100.00;95988.78;5062458;28;20036;-80
2021/08/30 07:42:45;;;;;;;10.10;7.40;;;;;;;13.59;100.00;95990.06;5076689;28;20013;-79
2021/08/30 07:45:12;;;;;;;11.13;5.82;;;;;;;13.78;100.00;95988.69;5075187;28;20025;-80
2021/08/30 07:47:40;;;;;;;8.82;6.03;;;;;;;13.81;100.00;95993.56;5061292;28;20099;-80
2021/08/30 07:50:06;;;;;;;8.15;5.72;;;;;;;13.83;100.00;96002.16;5056427;28;20059;-81
2021/08/30 07:52:32;;;;;;;8.30;5.75;;;;;;;13.88;100.00;95997.13;5069113;28;20029;-80
2021/08/30 07:54:58;;;;;;;9.73;6.75;;;;;;;13.95;100.00;96006.94;5053991;28;20025;-80
2021/08/30 07:57:24;;;;;;;9.55;6.05;;;;;;;14.03;100.00;96002.38;5066470;28;20035;-80
2021/08/30 07:59:50;;;;;;;8.75;5.75;;;;;;;14.06;100.00;96001.19;5074359;28;20024;-80
2021/08/30 08:02:16;;;;;;;8.88;5.28;;;;;;;14.06;100.00;96006.47;5079371;28;20028;-79
2021/08/30 08:04:42;;;;;;;9.25;5.30;;;;;;;14.16;100.00;96014.94;5072029;28;20039;-81
2021/08/30 08:07:08;;;;;;;10.55;6.13;;;;;;;14.12;100.00;96011.03;5062781;28;20036;-80
2021/08/30 08:09:33;;;;;;;7.60;5.03;;;;;;;14.07;100.00;96016.88;5074964;28;20650;-81
2021/08/30 08:11:59;;;;;;;8.00;5.50;;;;;;;14.11;100.00;96014.66;5080245;28;20036;-80
2021/08/30 08:14:25;;;;;;;10.32;6.00;;;;;;;14.18;100.00;96020.03;5079785;28;20036;-80
2021/08/30 08:16:51;;;;;;;8.75;6.07;;;;;;;14.11;100.00;96023.41;5061742;28;20119;-80
2021/08/30 08:19:17;;;;;;;8.18;5.97;;;;;;;14.11;100.00;96025.25;5084483;28;20028;-80
2021/08/30 08:21:43;;;;;;;10.73;6.60;;;;;;;14.16;100.00;96017.59;5076361;28;20088;-81
2021/08/30 08:24:10;;;;;;;8.40;5.43;;;;;;;14.00;100.00;96029.19;5075033;28;20036;-80
2021/08/30 08:26:36;;;;;;;8.15;5.80;;;;;;;14.09;100.00;96032.56;5057577;28;20389;-80
2021/08/30 08:29:02;;;;;;;8.38;5.25;;;;;;;14.20;100.00;96023.31;5077103;28;20036;-81
2021/08/30 08:31:28;;;;;;;16.13;7.28;;;;;;;14.48;100.00;96033.97;5054155;28;20025;-80
2021/08/30 08:33:54;;;;;;;12.90;9.50;;;;;;;14.57;100.00;96039.00;5070813;28;20415;-80
2021/08/30 08:36:21;;;;;;;6.60;4.70;;;;;;;14.67;100.00;96036.03;5078287;28;20023;-80
2021/08/30 08:38:47;;;;;;;7.55;5.20;;;;;;;14.68;100.00;96036.84;5074788;28;20048;-81
2021/08/30 08:41:14;;;;;;;7.65;4.93;;;;;;;14.87;100.00;96038.03;5047788;28;20054;-81
2021/08/30 08:43:41;;;;;;;6.90;4.57;;;;;;;15.47;100.00;96044.59;5073664;28;20114;-81
2021/08/30 08:46:07;;;;;;;5.85;3.78;;;;;;;15.59;100.00;96034.25;5082868;28;20030;-80
2021/08/30 08:48:34;;;;;;;6.32;4.10;;;;;;;15.57;100.00;96039.78;5071432;28;20033;-79
2021/08/30 08:51:01;;;;;;;11.15;7.55;;;;;;;15.29;100.00;96042.44;5066842;28;20013;-81
2021/08/30 08:53:27;;;;;;;7.93;4.57;;;;;;;15.13;100.00;96042.75;5049110;28;20115;-80
2021/08/30 08:55:53;;;;;;;6.97;4.43;;;;;;;14.77;100.00;96051.59;5069596;28;20050;-80
2021/08/30 08:58:21;;;;;;;7.90;4.43;;;;;;;14.75;100.00;96050.97;5054369;28;20037;-79
2021/08/30 09:01:00;;;;;;;6.63;4.20;;;;;;;14.89;100.00;96052.75;5074229;28;20023;-80
2021/08/30 09:03:26;;;;;;;7.97;4.10;;;;;;;14.94;100.00;96052.16;5049677;28;20025;-80
2021/08/30 09:06:05;;;;;;;6.47;3.85;;;;;;;15.06;100.00;96053.28;5054914;28;20032;-79
2021/08/30 09:08:40;;;;;;;7.47;4.32;;;;;;;15.13;100.00;96050.69;5075673;28;20044;-78
2021/08/30 09:11:21;;;;;;;9.82;5.15;;;;;;;15.19;100.00;96050.75;5067922;28;20075;-79
2021/08/30 09:13:55;;;;;;;6.43;4.13;;;;;;;15.27;100.00;96052.41;5067892;28;20039;-80
2021/08/30 09:16:25;;;;;;;7.30;4.07;;;;;;;15.43;100.00;96051.31;5046567;28;20040;-78
2021/08/30 09:19:05;;;;;;;12.85;6.70;;;;;;;15.79;100.00;96056.44;5059247;28;20025;-80
2021/08/30 09:21:32;;;;;;;10.63;4.85;;;;;;;15.95;100.00;96053.44;5078461;28;20032;-80
2021/08/30 09:24:10;;;;;;;8.43;5.43;;;;;;;15.82;100.00;96060.53;5047471;28;20031;-79
2021/08/30 09:26:43;;;;;;;7.57;3.67;;;;;;;15.48;100.00;96056.84;5068603;28;20055;-79
2021/08/30 09:29:15;;;;;;;5.97;3.38;;;;;;;15.25;100.00;96057.06;5063217;28;20029;-80
2021/08/30 09:31:40;;;;;;;5.28;3.30;;;;;;;14.99;100.00;96063.81;5071551;28;20039;-80
2021/08/30 09:34:12;;;;;;;5.70;3.35;;;;;;;15.06;100.00;96061.22;5076569;28;20031;-79
2021/08/30 09:36:42;;;;;;;5.40;3.15;;;;;;;14.87;100.00;96064.53;5063784;28;20188;-80
2021/08/30 09:39:08;;;;;;;5.95;4.03;;;;;;;14.93;100.00;96061.13;5049885;28;20434;-80
2021/08/30 09:41:41;;;;;;;5.35;3.38;;;;;;;14.88;100.00;96066.16;5067077;28;20032;-79
2021/08/30 09:44:08;;;;;;;6.18;3.38;;;;;;;14.76;100.00;96069.31;5047507;28;20040;-80
2021/08/30 09:46:34;;;;;;;6.65;3.15;;;;;;;14.66;100.00;96078.59;5065610;28;20039;-80
2021/08/30 09:49:06;;;;;;;6.40;4.32;;;;;;;14.58;100.00;96075.03;5069546;28;20024;-79
2021/08/30 09:51:38;;;;;;;8.20;5.15;;;;;;;14.51;100.00;96073.31;5068097;28;20333;-79
2021/08/30 09:54:03;;;;;;;2.50;1.50;;;;;;;14.29;100.00;96081.22;5069957;28;20045;-79
2021/08/30 09:56:32;;;;;;;2.33;1.02;;;;;;;14.29;100.00;96078.56;5061846;28;20098;-79
2021/08/30 09:58:59;;;;;;;2.20;1.13;;;;;;;14.48;100.00;96084.25;5066400;28;20072;-78
2021/08/30 10:01:25;;;;;;;2.17;1.13;;;;;;;14.67;100.00;96075.72;5058560;28;20035;-79
2021/08/30 10:03:51;;;;;;;4.03;1.30;;;;;;;14.95;100.00;96074.97;5071170;28;20063;-79
2021/08/30 10:06:18;;;;;;;2.08;1.13;;;;;;;14.70;100.00;96079.84;5074389;28;20024;-79
2021/08/30 10:08:44;;;;;;;7.07;1.75;;;;;;;14.23;100.00;96089.06;5076889;28;20397;-78
2021/08/30 10:11:10;;;;;;;3.70;1.25;;;;;;;14.14;100.00;96093.63;5074536;28;20023;-79
2021/08/30 10:13:37;;;;;;;2.75;1.55;;;;;;;14.30;100.00;96082.84;5058264;28;20043;-79
2021/08/30 10:16:04;;;;;;;3.22;1.35;;;;;;;14.58;100.00;96087.44;5061217;28;20029;-78
2021/08/30 10:18:30;;;;;;;3.60;1.60;;;;;;;14.85;100.00;96086.72;5052289;28;20033;-80
2021/08/30 10:20:55;;;;;;;2.85;1.48;;;;;;;15.43;100.00;96089.22;5074249;28;20039;-79
2021/08/30 10:23:22;;;;;;;3.88;1.73;;;;;;;15.55;100.00;96078.91;5072896;28;20039;-79
2021/08/30 10:26:01;;;;;;;3.03;1.48;;;;;;;16.82;100.00;96085.59;5073469;28;20197;-78
2021/08/30 10:28:37;;;;;;;3.78;1.60;;;;;;;18.28;96.83;96078.31;5060945;28;20044;-79
2021/08/30 10:31:18;;;;;;;4.47;1.90;;;;;;;19.51;92.15;96072.59;5078985;28;20028;-79
2021/08/30 10:33:47;;;;;;;4.00;1.77;;;;;;;18.58;95.63;96072.44;5081189;28;20070;-78
2021/08/30 10:36:15;;;;;;;2.00;1.10;;;;;;;17.96;93.57;96072.06;5070146;28;20056;-79
2021/08/30 10:38:41;;;;;;;2.80;1.63;;;;;;;17.08;97.61;96085.66;5061677;28;20096;-80
2021/08/30 10:41:17;;;;;;;2.80;1.60;;;;;;;16.72;100.00;96078.81;5073040;28;20119;-80
2021/08/30 10:43:44;;;;;;;2.58;0.88;;;;;;;16.44;100.00;96086.91;5073329;28;20032;-79
2021/08/30 10:46:17;;;;;;;1.80;1.13;;;;;;;16.25;100.00;96083.16;5069832;28;20089;-79
2021/08/30 10:48:50;;;;;;;3.08;1.30;;;;;;;16.05;98.85;96089.41;5055361;28;20029;-78
2021/08/30 10:51:19;;;;;;;3.33;1.17;;;;;;;16.14;100.00;96091.69;5075289;28;20059;-78
2021/08/30 10:53:59;;;;;;;1.77;1.05;;;;;;;16.57;100.00;96086.16;5054714;28;20029;-79
2021/08/30 10:56:30;;;;;;;6.22;3.25;;;;;;;18.44;94.36;96082.31;5080721;28;20028;-78
2021/08/30 10:59:03;;;;;;;7.55;4.70;;;;;;;18.64;90.04;96082.22;5049880;28;20028;-79
2021/08/30 11:01:29;;;;;;;7.60;4.43;;;;;;;18.73;89.91;96085.50;5060586;28;20036;-79
2021/08/30 11:03:58;;;;;;;2.85;1.42;;;;;;;19.08;89.04;96083.22;5076113;28;20024;-79
2021/08/30 11:06:25;;;;;;;2.47;1.23;;;;;;;18.77;88.74;96081.34;5085004;28;20587;-79
2021/08/30 11:08:51;;;;;;;1.90;1.08;;;;;;;19.52;85.74;96073.44;5059052;28;20032;-79
2021/08/30 11:11:22;;;;;;;1.85;1.00;;;;;;;20.91;80.11;96076.34;5057327;28;20054;-80
2021/08/30 11:14:08;;;;;;;1.42;1.00;;;;;;;20.84;81.20;96076.44;5078296;28;20032;-79
2021/08/30 11:16:36;;;;;;;2.53;1.45;;;;;;;20.07;80.19;96075.34;5061925;28;20063;-80
2021/08/30 11:19:11;;;;;;;2.30;0.80;;;;;;;18.74;82.22;96081.78;5075972;28;20058;-79
2021/08/30 11:21:51;;;;;;;1.10;0.82;;;;;;;18.68;85.55;96077.28;5059462;28;20115;-80
2021/08/30 11:24:30;;;;;;;7.10;1.13;;;;;;;18.08;85.16;96088.22;5061827;28;20036;-80
2021/08/30 11:27:01;;;;;;;2.78;1.17;;;;;;;17.60;87.69;96086.63;5073581;28;20024;-79
2021/08/30 11:29:27;;;;;;;1.27;0.70;;;;;;;17.38;85.11;96093.22;5078159;28;20037;-79
2021/08/30 11:31:53;;;;;;;8.13;4.38;;;;;;;17.71;85.79;96092.38;5057727;28;20107;-80